createdAt,value
2019-03-10T00:03:52.128Z,96386.28
2019-03-10T00:06:41.881Z,96376.72
2019-03-10T00:09:24.539Z,96373.20
2019-03-10T00:15:15.515Z,96367.59
2019-03-10T00:18:05.536Z,96362.94
2019-03-10T00:20:50.589Z,96361.36
2019-03-10T00:23:54.475Z,96363.06
2019-03-10T00:26:29.655Z,96375.14
2019-03-10T00:32:23.503Z,96370.66
2019-03-10T00:35:13.522Z,96373.03
2019-03-10T00:37:44.319Z,96364.91
2019-03-10T00:41:12.184Z,96363.95
2019-03-10T00:44:15.650Z,96362.81
2019-03-10T00:47:43.559Z,96330.50
2019-03-10T00:53:32.969Z,96327.23
2019-03-10T00:56:24.159Z,96317.50
2019-03-10T00:59:28.350Z,96299.11
2019-03-10T01:02:11.019Z,96304.10
2019-03-10T01:05:01.200Z,96263.55
2019-03-10T01:07:45.316Z,96281.75
2019-03-10T01:10:35.043Z,96282.17
2019-03-10T01:13:18.039Z,96263.12
2019-03-10T01:16:07.971Z,96258.44
2019-03-10T01:18:50.249Z,96225.27
2019-03-10T01:22:00.549Z,96242.24
2019-03-10T01:24:43.033Z,96245.97
2019-03-10T01:30:30.143Z,96229.24
2019-03-10T01:33:58.065Z,96225.77
2019-03-10T01:36:48.154Z,96224.77
2019-03-10T01:39:38.008Z,96211.37
2019-03-10T01:45:22.633Z,96192.67
2019-03-10T01:48:06.875Z,96166.34
2019-03-10T01:50:49.251Z,96184.12
2019-03-10T01:53:39.032Z,96176.16
2019-03-10T01:56:28.817Z,96167.03
2019-03-10T01:59:18.543Z,96148.34
2019-03-10T02:02:08.331Z,96157.71
2019-03-10T02:04:58.210Z,96156.14
2019-03-10T02:08:07.074Z,96144.28
2019-03-10T02:10:56.833Z,96136.87
2019-03-10T02:13:46.579Z,96131.04
2019-03-10T02:16:36.578Z,96128.30
2019-03-10T02:19:26.404Z,96125.58
2019-03-10T02:22:16.400Z,96111.58
2019-03-10T02:25:06.608Z,96071.47
2019-03-10T02:27:48.986Z,96066.44
2019-03-10T02:33:33.846Z,96076.75
2019-03-10T02:36:35.900Z,96071.88
2019-03-10T02:39:18.499Z,96072.05
2019-03-10T02:42:08.240Z,96066.58
2019-03-10T02:45:16.621Z,96061.31
2019-03-10T02:48:03.656Z,96052.19
2019-03-10T02:50:53.349Z,96053.16
2019-03-10T02:53:35.377Z,96038.77
2019-03-10T02:59:20.904Z,96032.89
2019-03-10T03:02:10.607Z,96003.89
2019-03-10T03:05:00.666Z,96006.41
2019-03-10T03:07:45.320Z,95988.29
2019-03-10T03:10:35.094Z,95976.02
2019-03-10T03:13:24.895Z,95997.07
2019-03-10T03:16:14.649Z,95979.77
2019-03-10T03:19:04.387Z,95987.92
2019-03-10T03:24:49.476Z,95935.39
2019-03-10T03:27:33.259Z,95951.95
2019-03-10T03:30:16.138Z,95952.32
2019-03-10T03:36:32.644Z,95917.13
2019-03-10T03:42:43.453Z,95901.55
2019-03-10T03:45:26.207Z,95886.59
2019-03-10T03:51:11.294Z,95839.17
2019-03-10T03:54:13.449Z,95871.45
2019-03-10T03:56:55.751Z,95869.65
2019-03-10T04:02:41.424Z,95871.66
2019-03-10T04:05:31.355Z,95869.30
2019-03-10T04:08:21.096Z,95858.44
2019-03-10T04:11:10.981Z,95858.44
2019-03-10T04:13:54.271Z,95861.91
2019-03-10T04:16:38.157Z,95852.59
2019-03-10T04:19:20.726Z,95841.36
2019-03-10T04:22:10.435Z,95839.97
2019-03-10T04:27:56.049Z,95817.84
2019-03-10T04:30:38.254Z,95825.19
2019-03-10T04:33:27.998Z,95830.05
2019-03-10T04:39:12.511Z,95816.08
2019-03-10T04:41:55.367Z,95801.83
2019-03-10T04:47:40.831Z,95842.67
2019-03-10T04:50:30.599Z,95846.51
2019-03-10T04:53:20.746Z,95839.52
2019-03-10T05:02:24.194Z,95807.63
2019-03-10T05:05:09.377Z,95833.50
2019-03-10T05:10:55.073Z,95816.44
2019-03-10T05:13:44.939Z,95817.76
2019-03-10T05:16:27.377Z,95820.94
2019-03-10T05:19:17.258Z,95793.70
2019-03-10T05:22:07.149Z,95804.06
2019-03-10T05:24:56.901Z,95795.70
2019-03-10T05:27:46.669Z,95796.09
2019-03-10T05:30:36.389Z,95794.94
2019-03-10T05:33:20.281Z,95757.47
2019-03-10T05:39:27.921Z,95787.62
2019-03-10T05:42:17.632Z,95794.43
2019-03-10T05:45:00.525Z,95786.23
2019-03-10T05:47:43.635Z,95795.20
2019-03-10T05:50:33.465Z,95798.91
2019-03-10T05:53:17.553Z,95783.77
2019-03-10T05:56:07.332Z,95790.17
2019-03-10T06:01:52.884Z,95788.22
2019-03-10T06:04:35.314Z,95791.35
2019-03-10T06:10:20.465Z,95787.47
2019-03-10T06:13:10.315Z,95779.70
2019-03-10T06:16:00.046Z,95766.28
2019-03-10T06:22:14.283Z,95776.61
2019-03-10T06:24:56.572Z,95785.53
2019-03-10T06:27:46.436Z,95788.84
2019-03-10T06:30:36.244Z,95798.36
2019-03-10T06:36:30.299Z,95784.21
2019-03-10T06:39:14.688Z,95771.38
2019-03-10T06:42:16.316Z,95766.72
2019-03-10T06:44:58.374Z,95775.47
2019-03-10T06:47:48.140Z,95770.59
2019-03-10T06:50:38.024Z,95738.15
2019-03-10T06:53:27.830Z,95760.27
2019-03-10T06:56:17.629Z,95760.23
2019-03-10T06:59:20.762Z,95734.73
2019-03-10T07:02:03.682Z,95739.36
2019-03-10T07:04:53.406Z,95744.39
2019-03-10T07:07:36.668Z,95743.59
2019-03-10T07:10:19.270Z,95738.72
2019-03-10T07:12:49.910Z,95740.05
2019-03-10T07:19:04.161Z,95732.18
2019-03-10T07:21:48.428Z,95717.27
2019-03-10T07:24:31.624Z,95710.23
2019-03-10T07:30:37.618Z,95717.03
2019-03-10T07:33:44.082Z,95726.56
2019-03-10T07:39:54.571Z,95724.94
2019-03-10T07:43:03.148Z,95717.96
2019-03-10T07:46:07.874Z,95749.63
2019-03-10T07:52:01.663Z,95754.50
2019-03-10T07:55:03.976Z,95733.81
2019-03-10T07:58:08.750Z,95740.73
2019-03-10T08:01:17.336Z,95741.56
2019-03-10T08:07:36.100Z,95763.97
2019-03-10T08:10:44.656Z,95767.48
2019-03-10T08:13:34.863Z,95759.14
2019-03-10T08:16:43.427Z,95749.69
2019-03-10T08:19:44.867Z,95767.91
2019-03-10T08:22:53.429Z,95774.16
2019-03-10T08:25:55.732Z,95774.37
2019-03-10T08:29:04.262Z,95757.17
2019-03-10T08:32:10.268Z,95761.95
2019-03-10T08:38:09.259Z,95767.98
2019-03-10T08:41:15.593Z,95745.23
2019-03-10T08:44:24.413Z,95784.53
2019-03-10T08:47:26.697Z,95789.05
2019-03-10T08:50:24.037Z,95748.83
2019-03-10T08:53:32.623Z,95733.28
2019-03-10T08:56:34.722Z,95751.47
2019-03-10T08:59:30.073Z,95738.98
2019-03-10T09:02:38.697Z,95732.54
2019-03-10T09:09:08.025Z,95694.48
2019-03-10T09:12:16.587Z,95728.43
2019-03-10T09:15:18.471Z,95736.99
2019-03-10T09:21:30.207Z,95722.20
2019-03-10T09:24:26.273Z,95725.87
2019-03-10T09:27:34.864Z,95702.34
2019-03-10T09:30:43.601Z,95719.99
2019-03-10T09:36:49.858Z,95711.16
2019-03-10T09:39:38.278Z,95708.83
2019-03-10T09:43:05.861Z,95697.30
2019-03-10T09:46:07.478Z,95665.33
2019-03-10T09:49:16.045Z,95645.38
2019-03-10T09:52:17.755Z,95636.59
2019-03-10T09:58:21.404Z,95630.94
2019-03-10T10:01:17.354Z,95624.48
2019-03-10T10:04:25.960Z,95639.27
2019-03-10T10:07:34.660Z,95620.53
2019-03-10T10:10:34.300Z,95634.31
2019-03-10T10:13:42.943Z,95628.60
2019-03-10T10:16:51.659Z,95610.16
2019-03-10T10:20:00.290Z,95596.89
2019-03-10T10:23:08.984Z,95606.84
2019-03-10T10:26:13.076Z,95621.28
2019-03-10T10:29:21.644Z,95628.89
2019-03-10T10:32:17.733Z,95637.12
2019-03-10T10:35:26.889Z,95622.48
2019-03-10T10:38:28.920Z,95620.92
2019-03-10T10:41:25.978Z,95604.02
2019-03-10T10:44:27.600Z,95606.81
2019-03-10T10:47:23.420Z,95581.03
2019-03-10T10:53:28.034Z,95592.69
2019-03-10T10:56:29.914Z,95606.73
2019-03-10T10:59:25.626Z,95560.28
2019-03-10T11:02:34.286Z,95549.71
2019-03-10T11:05:58.810Z,95570.92
2019-03-10T11:08:59.605Z,95548.13
2019-03-10T11:12:08.135Z,95571.69
2019-03-10T11:15:11.699Z,95582.97
2019-03-10T11:21:16.248Z,95572.83
2019-03-10T11:24:07.795Z,95589.78
2019-03-10T11:27:07.557Z,95611.77
2019-03-10T11:36:44.886Z,95657.37
2019-03-10T11:39:53.423Z,95667.03
2019-03-10T11:42:59.071Z,95655.87
2019-03-10T11:46:07.629Z,95686.13
2019-03-10T11:48:58.735Z,95693.40
2019-03-10T11:52:07.295Z,95688.85
2019-03-10T11:55:09.831Z,95704.13
2019-03-10T12:01:30.275Z,95707.77
2019-03-10T12:07:34.554Z,95694.91
2019-03-10T12:16:02.521Z,95679.41
2019-03-10T12:18:52.354Z,95687.99
2019-03-10T12:25:02.621Z,95659.22
2019-03-10T12:27:52.617Z,95692.51
2019-03-10T12:30:34.887Z,95712.42
2019-03-10T12:33:24.619Z,95688.52
2019-03-10T12:36:08.156Z,95702.40
2019-03-10T12:38:57.945Z,95689.20
2019-03-10T12:41:40.753Z,95681.87
2019-03-10T12:44:30.892Z,95691.84
2019-03-10T12:47:16.171Z,95673.88
2019-03-10T12:49:58.476Z,95655.63
2019-03-10T12:52:48.655Z,95637.58
2019-03-10T12:55:38.445Z,95661.69
2019-03-10T12:58:20.586Z,95658.97
2019-03-10T13:01:10.436Z,95663.90
2019-03-10T13:03:58.830Z,95670.58
2019-03-10T13:06:57.507Z,95663.85
2019-03-10T13:09:40.023Z,95674.40
2019-03-10T13:12:29.822Z,95672.67
2019-03-10T13:15:12.091Z,95671.56
2019-03-10T13:18:01.818Z,95657.45
2019-03-10T13:20:44.249Z,95653.72
2019-03-10T13:23:53.111Z,95657.77
2019-03-10T13:26:35.491Z,95672.06
2019-03-10T13:32:24.873Z,95671.33
2019-03-10T13:35:14.700Z,95637.06
2019-03-10T13:38:04.890Z,95645.61
2019-03-10T13:46:11.281Z,95638.32
2019-03-10T13:49:01.027Z,95664.61
2019-03-10T13:51:43.303Z,95646.47
2019-03-10T13:54:33.081Z,95647.89
2019-03-10T13:57:15.091Z,95688.73
2019-03-10T14:00:05.782Z,95678.86
2019-03-10T14:02:49.528Z,95672.98
2019-03-10T14:05:39.337Z,95685.96
2019-03-10T14:08:23.018Z,95679.58
2019-03-10T14:11:12.795Z,95691.91
2019-03-10T14:13:57.018Z,95695.83
2019-03-10T14:16:46.830Z,95711.73
2019-03-10T14:19:29.722Z,95668.12
2019-03-10T14:22:19.452Z,95709.52
2019-03-10T14:27:58.064Z,95688.11
2019-03-10T14:30:47.842Z,95709.89
2019-03-10T14:33:36.329Z,95674.30
2019-03-10T14:36:25.642Z,95718.27
2019-03-10T14:39:08.442Z,95727.92
2019-03-10T14:41:50.954Z,95739.80
2019-03-10T14:44:40.750Z,95754.52
2019-03-10T14:47:30.915Z,95751.05
2019-03-10T14:50:21.758Z,95791.91
2019-03-10T14:53:11.752Z,95801.36
2019-03-10T14:56:01.587Z,95800.67
2019-03-10T14:58:51.499Z,95798.83
2019-03-10T15:01:41.280Z,95809.75
2019-03-10T15:04:31.139Z,95805.82
2019-03-10T15:07:13.298Z,95808.92
2019-03-10T15:10:03.110Z,95810.96
2019-03-10T15:12:52.935Z,95803.52
2019-03-10T15:15:42.785Z,95822.45
2019-03-10T15:18:32.720Z,95797.55
2019-03-10T15:21:22.645Z,95820.87
2019-03-10T15:24:12.428Z,95812.75
2019-03-10T15:27:02.310Z,95815.89
2019-03-10T15:29:52.316Z,95821.76
2019-03-10T15:32:42.071Z,95845.91
2019-03-10T15:35:31.512Z,95840.80
2019-03-10T15:38:15.839Z,95833.56
2019-03-10T15:43:57.971Z,95844.30
2019-03-10T15:46:41.754Z,95846.30
2019-03-10T15:49:31.489Z,95843.40
2019-03-10T15:57:50.803Z,95865.00
2019-03-10T16:00:40.961Z,95872.42
2019-03-10T16:03:24.458Z,95875.32
2019-03-10T16:06:14.183Z,95875.73
2019-03-10T16:08:57.034Z,95887.41
2019-03-10T16:11:46.895Z,95891.50
2019-03-10T16:14:44.095Z,95862.16
2019-03-10T16:17:33.966Z,95914.28
2019-03-10T16:20:17.703Z,95888.43
2019-03-10T16:23:07.528Z,95930.65
2019-03-10T16:25:50.823Z,95901.25
2019-03-10T16:31:41.652Z,95895.41
2019-03-10T16:34:31.415Z,95895.63
2019-03-10T16:37:14.473Z,95901.09
2019-03-10T16:39:45.227Z,95921.72
2019-03-10T16:42:35.116Z,95932.22
2019-03-10T16:45:25.021Z,95939.42
2019-03-10T16:48:14.832Z,95931.61
2019-03-10T16:51:04.621Z,95949.13
2019-03-10T16:53:54.363Z,95957.69
2019-03-10T17:00:28.248Z,96000.69
2019-03-10T17:03:10.510Z,95945.79
2019-03-10T17:08:58.079Z,95941.48
2019-03-10T17:11:47.823Z,95958.39
2019-03-10T17:14:30.352Z,95935.23
2019-03-10T17:17:20.215Z,95964.83
2019-03-10T17:20:11.246Z,95943.20
2019-03-10T17:22:53.414Z,95972.59
2019-03-10T17:25:43.152Z,95977.45
2019-03-10T17:28:26.280Z,95979.59
2019-03-10T17:31:15.981Z,95987.97
2019-03-10T17:37:10.664Z,96004.67
2019-03-10T17:39:53.306Z,95986.17
2019-03-10T17:42:43.070Z,96030.73
2019-03-10T17:45:32.970Z,96036.18
2019-03-10T17:48:22.784Z,96038.53
2019-03-10T17:51:05.746Z,96057.16
2019-03-10T17:53:55.773Z,96076.78
2019-03-10T17:56:45.572Z,96143.97
2019-03-10T17:59:48.894Z,96134.14
2019-03-10T18:02:31.492Z,96122.84
2019-03-10T18:08:17.890Z,96093.02
2019-03-10T18:14:02.820Z,96080.44
2019-03-10T18:16:52.632Z,96108.20
2019-03-10T18:22:37.536Z,96101.30
2019-03-10T18:28:23.467Z,96106.16
2019-03-10T18:31:24.968Z,96114.58
2019-03-10T18:34:09.082Z,96119.16
2019-03-10T18:36:59.069Z,96124.08
2019-03-10T18:39:48.948Z,96113.79
2019-03-10T18:42:38.716Z,96117.41
2019-03-10T18:48:23.061Z,96119.79
2019-03-10T18:51:05.127Z,96106.20
2019-03-10T18:56:50.323Z,96106.17
2019-03-10T19:02:35.304Z,96130.41
2019-03-10T19:05:37.261Z,96089.65
2019-03-10T19:08:20.199Z,96137.53
2019-03-10T19:17:32.189Z,96146.59
2019-03-10T19:20:21.879Z,96144.89
2019-03-10T19:23:04.311Z,96131.84
2019-03-10T19:25:54.009Z,96144.84
2019-03-10T19:28:36.359Z,96151.69
2019-03-10T19:31:26.090Z,96145.23
2019-03-10T19:34:08.035Z,96139.06
2019-03-10T19:36:38.777Z,96143.36
2019-03-10T19:39:47.313Z,96155.66
2019-03-10T19:42:30.383Z,96149.77
2019-03-10T19:45:20.188Z,96136.55
2019-03-10T19:48:22.134Z,96138.70
2019-03-10T19:51:04.541Z,96142.77
2019-03-10T19:56:58.886Z,96143.52
2019-03-10T19:59:41.017Z,96124.55
2019-03-10T20:02:30.729Z,96151.65
2019-03-10T20:05:13.691Z,96161.53
2019-03-10T20:08:03.414Z,96169.63
2019-03-10T20:10:46.329Z,96177.36
2019-03-10T20:16:22.917Z,96186.17
2019-03-10T20:19:12.757Z,96207.58
2019-03-10T20:22:14.619Z,96211.98
2019-03-10T20:24:57.349Z,96203.84
2019-03-10T20:27:47.199Z,96213.80
2019-03-10T20:33:31.619Z,96212.88
2019-03-10T20:39:25.103Z,96239.59
2019-03-10T20:42:07.726Z,96256.53
2019-03-10T20:44:57.437Z,96257.95
2019-03-10T20:47:41.335Z,96264.97
2019-03-10T20:53:33.148Z,96273.84
2019-03-10T20:59:24.732Z,96298.50
2019-03-10T21:05:18.630Z,96308.19
2019-03-10T21:08:00.741Z,96299.58
2019-03-10T21:10:50.562Z,96299.83
2019-03-10T21:13:52.110Z,96310.92
2019-03-10T21:16:34.262Z,96315.37
2019-03-10T21:19:24.068Z,96303.81
2019-03-10T21:22:26.500Z,96322.05
2019-03-10T21:25:10.044Z,96343.10
2019-03-10T21:27:59.761Z,96314.16
2019-03-10T21:34:13.867Z,96348.45
2019-03-10T21:36:56.398Z,96336.63
2019-03-10T21:43:28.724Z,96335.09
2019-03-10T21:46:10.898Z,96334.49
2019-03-10T21:51:57.763Z,96348.58
2019-03-10T21:55:06.604Z,96337.31
2019-03-10T21:57:51.233Z,96351.28
2019-03-10T22:00:41.014Z,96347.71
2019-03-10T22:03:23.391Z,96358.36
2019-03-10T22:09:10.484Z,96365.78
2019-03-10T22:14:59.670Z,96372.02
2019-03-10T22:17:44.212Z,96384.28
2019-03-10T22:20:46.135Z,96396.10
2019-03-10T22:26:24.247Z,96414.00
2019-03-10T22:29:14.070Z,96409.16
2019-03-10T22:32:03.952Z,96416.52
2019-03-10T22:34:53.911Z,96416.92
2019-03-10T22:37:43.798Z,96392.98
2019-03-10T22:43:28.253Z,96407.30
2019-03-10T22:46:18.056Z,96420.57
2019-03-10T22:52:07.455Z,96414.22
2019-03-10T22:54:49.840Z,96412.28
2019-03-10T22:57:51.322Z,96421.84
2019-03-10T23:00:52.581Z,96432.78
2019-03-10T23:06:38.127Z,96411.41
2019-03-10T23:12:34.067Z,96433.67
2019-03-10T23:15:16.313Z,96433.67
2019-03-10T23:18:06.126Z,96434.46
2019-03-10T23:20:48.398Z,96446.70
2019-03-10T23:26:33.492Z,96453.45
2019-03-10T23:32:18.399Z,96456.37
2019-03-10T23:35:08.239Z,96457.86
2019-03-10T23:37:58.027Z,96457.97
2019-03-10T23:40:47.768Z,96463.98
2019-03-10T23:43:30.609Z,96471.02
2019-03-10T23:46:20.379Z,96480.55
2019-03-10T23:52:04.831Z,96486.52
2019-03-10T23:54:54.564Z,96490.29
2019-03-10T23:57:37.129Z,96476.59
